Jena Marie C. — WDD4969 — position and weather

sailwx.info

Track history (hours):
 
Tides and Currents Weather Stations Pressure Air Temp Water Temp Dewpoint Dewpoint Depression Visibility Wind Speed Wind Dir Waves Ship Positions

Jena Marie C.

Owner: Scott C. Marine Towing, LLC, Marrero, LA. More information available from US FCC via Universal Licensing System and Coast Guard Vessel Documentation Center.

Last reported at 2015-Feb-28 21:33 UTC. Time now 2015-Mar-01 12:34 UTC.
Position N 29°54' W 090°07'.

Length 19 m; draft 2.5 m.

Type: Towing. MMSI: 367151880.

Date/timePositionNaut miles runAvg speedWind from/ knotsBaromVisibWave heightAir tempDewpointWater temp
2015-Feb-28 21:33N 29°54' W 090°07'0 0.0
2015-Feb-28 20:21N 29°54' W 090°07'0 0.0
2015-Feb-28 19:31N 29°54' W 090°07'0 0.0
2015-Feb-28 18:28N 29°54' W 090°07'0 0.0
2015-Feb-28 17:32N 29°54' W 090°07'0 0.0
2015-Feb-28 16:32N 29°54' W 090°07'0 0.0
2015-Feb-28 15:33N 29°54' W 090°07'0 0.0
2015-Feb-28 14:33N 29°54' W 090°07'0 0.0
2015-Feb-28 13:33N 29°54' W 090°07'0 0.0
2015-Feb-28 12:32N 29°54' W 090°07'0 0.0
2015-Feb-28 11:32N 29°54' W 090°07'0 0.0
2015-Feb-28 10:24N 29°54' W 090°07'0 0.0
2015-Feb-28 09:09N 29°54' W 090°07'0 0.0
2015-Feb-28 08:21N 29°54' W 090°07'2 0.1
2015-Feb-27 13:12N 29°57' W 090°08'2 3.3
2015-Feb-27 12:33N 29°55' W 090°07'2 1.9
2015-Feb-27 11:27N 29°55' W 090°05'0 0.0
2015-Feb-27 10:31N 29°55' W 090°05'1 0.6
2015-Feb-27 09:32N 29°55' W 090°04'3 3.0
2015-Feb-27 08:30N 29°57' W 090°02'3 3.5
2015-Feb-27 07:33N 29°55' W 089°58'3 0.1
2015-Feb-26 00:34N 29°57' W 090°01'  
2015-Feb-22 15:31N 29°57' W 090°02'1 1.3
2015-Feb-22 14:28N 29°58' W 090°01'3 2.5
2015-Feb-22 13:29N 30°01' W 090°02'  
2015-Feb-19 18:32N 29°56' W 089°59'7 6.9
2015-Feb-19 17:29N 29°55' W 090°08'1 1.3
2015-Feb-19 16:26N 29°56' W 090°08'3 1.3
2015-Feb-19 14:07N 29°55' W 090°05'  
Track history (hours):
 
Tides and Currents Weather Stations Pressure Air Temp Water Temp Dewpoint Dewpoint Depression Visibility Wind Speed Wind Dir Waves Ship Positions

Jena Marie C.

Owner: Scott C. Marine Towing, LLC, Marrero, LA. More information available from US FCC via Universal Licensing System and Coast Guard Vessel Documentation Center.

Last reported at 2015-Feb-28 21:33 UTC. Time now 2015-Mar-01 12:34 UTC.
Position N 29°54' W 090°07'.

Length 19 m; draft 2.5 m.

Type: Towing. MMSI: 367151880.

Date/timePositionNaut miles runAvg speedWind from/ knotsBaromVisibWave heightAir tempDewpointWater temp
2015-Feb-28 21:33N 29°54' W 090°07'0 0.0
2015-Feb-28 20:21N 29°54' W 090°07'0 0.0
2015-Feb-28 19:31N 29°54' W 090°07'0 0.0
2015-Feb-28 18:28N 29°54' W 090°07'0 0.0
2015-Feb-28 17:32N 29°54' W 090°07'0 0.0
2015-Feb-28 16:32N 29°54' W 090°07'0 0.0
2015-Feb-28 15:33N 29°54' W 090°07'0 0.0
2015-Feb-28 14:33N 29°54' W 090°07'0 0.0
2015-Feb-28 13:33N 29°54' W 090°07'0 0.0
2015-Feb-28 12:32N 29°54' W 090°07'0 0.0
2015-Feb-28 11:32N 29°54' W 090°07'0 0.0
2015-Feb-28 10:24N 29°54' W 090°07'0 0.0
2015-Feb-28 09:09N 29°54' W 090°07'0 0.0
2015-Feb-28 08:21N 29°54' W 090°07'2 0.1
2015-Feb-27 13:12N 29°57' W 090°08'2 3.3
2015-Feb-27 12:33N 29°55' W 090°07'2 1.9
2015-Feb-27 11:27N 29°55' W 090°05'0 0.0
2015-Feb-27 10:31N 29°55' W 090°05'1 0.6
2015-Feb-27 09:32N 29°55' W 090°04'3 3.0
2015-Feb-27 08:30N 29°57' W 090°02'3 3.5
2015-Feb-27 07:33N 29°55' W 089°58'3 0.1
2015-Feb-26 00:34N 29°57' W 090°01'  
2015-Feb-22 15:31N 29°57' W 090°02'1 1.3
2015-Feb-22 14:28N 29°58' W 090°01'3 2.5
2015-Feb-22 13:29N 30°01' W 090°02'  
2015-Feb-19 18:32N 29°56' W 089°59'7 6.9
2015-Feb-19 17:29N 29°55' W 090°08'1 1.3
2015-Feb-19 16:26N 29°56' W 090°08'3 1.3
2015-Feb-19 14:07N 29°55' W 090°05'  

Dump ship's entire track history